TAF EPSY 041130Z 0412/0421 08010KT 9999 BKN018 PROB40 TEMPO 0415/0421 -RA BKN010=